Time;durP1;ratioP1;P1;durP2;ratioP2;P2;SDS_P1;SDS_P2;PMS_P1;PMS_P2;Temp;Humidity;BMP_temperature;BMP_pressure;BME280_temperature;BME280_humidity;BME280_pressure;Samples;Min_cycle;Max_cycle;Signal;HPM_P1;HPM_P2
2023/03/22 00:00:15;;;;;;;;;;;;;;;14.89;51.93;100737.97;5072451;28;19916;-79
2023/03/22 00:03:05;;;;;;;;;;;;;;;14.96;51.66;100730.78;5055193;28;19928;-79
2023/03/22 00:05:58;;;;;;;;;;;;;;;14.85;51.84;100735.13;5057821;28;19917;-79
2023/03/22 00:08:50;;;;;;;;;;;;;;;14.84;51.86;100739.00;5055601;28;19917;-79
2023/03/22 00:11:42;;;;;;;;;;;;;;;14.79;51.98;100741.16;5061413;28;20003;-78
2023/03/22 00:14:34;;;;;;;;;;;;;;;14.72;51.93;100736.28;5058673;28;19917;-78
2023/03/22 00:17:23;;;;;;;;;;;;;;;14.74;51.88;100738.66;5057427;28;19924;-79
2023/03/22 00:20:15;;;;;;;;;;;;;;;14.70;52.35;100740.50;5060591;28;19917;-78
2023/03/22 00:23:07;;;;;;;;;;;;;;;14.68;52.14;100735.34;5058588;28;19921;-79
2023/03/22 00:25:59;;;;;;;;;;;;;;;14.70;52.10;100732.28;5055465;28;19916;-78
2023/03/22 00:28:51;;;;;;;;;;;;;;;14.67;52.02;100727.50;5062091;28;19917;-78
2023/03/22 00:31:44;;;;;;;;;;;;;;;14.70;52.03;100724.06;5057383;28;19917;-79
2023/03/22 00:34:35;;;;;;;;;;;;;;;14.70;52.01;100733.06;5058665;28;19921;-78
2023/03/22 00:37:27;;;;;;;;;;;;;;;14.65;52.49;100732.50;5053873;28;19916;-78
2023/03/22 00:40:19;;;;;;;;;;;;;;;14.60;52.49;100727.25;5067170;28;19916;-78
2023/03/22 00:43:10;;;;;;;;;;;;;;;14.62;52.38;100723.06;5077899;28;19921;-79
2023/03/22 00:46:02;;;;;;;;;;;;;;;14.53;52.95;100716.88;5064138;28;19917;-78
2023/03/22 00:48:54;;;;;;;;;;;;;;;14.50;52.44;100715.63;5054048;28;20442;-79
2023/03/22 00:51:43;;;;;;;;;;;;;;;14.53;52.19;100717.66;5054926;28;19917;-78
2023/03/22 00:54:35;;;;;;;;;;;;;;;14.55;52.30;100709.94;5056471;28;20299;-79
2023/03/22 00:57:24;;;;;;;;;;;;;;;14.50;52.41;100712.91;5052903;28;19921;-79
2023/03/22 01:00:17;;;;;;;;;;;;;;;14.48;52.45;100706.94;5058633;28;19917;-78
2023/03/22 01:03:07;;;;;;;;;;;;;;;14.58;52.65;100713.91;5049728;28;19928;-79
2023/03/22 01:05:56;;;;;;;;;;;;;;;14.48;52.71;100709.69;5067445;28;19917;-79
2023/03/22 01:08:46;;;;;;;;;;;;;;;14.51;52.65;100708.22;5058632;28;19917;-78
2023/03/22 01:11:38;;;;;;;;;;;;;;;14.42;53.36;100705.59;5068959;28;19917;-78
2023/03/22 01:14:30;;;;;;;;;;;;;;;14.53;53.03;100708.66;5072895;28;19920;-78
2023/03/22 01:17:22;;;;;;;;;;;;;;;14.46;52.36;100703.78;5058123;28;19917;-77
2023/03/22 01:20:14;;;;;;;;;;;;;;;14.45;52.76;100707.66;5050113;28;19916;-79
2023/03/22 01:23:06;;;;;;;;;;;;;;;14.45;53.04;100709.56;5060399;28;19920;-78
2023/03/22 01:25:58;;;;;;;;;;;;;;;14.50;53.19;100712.09;5053506;28;19917;-78
2023/03/22 01:28:50;;;;;;;;;;;;;;;14.55;53.01;100709.13;5072244;28;19917;-78
2023/03/22 01:31:41;;;;;;;;;;;;;;;14.56;52.74;100705.25;5056073;28;19917;-78
2023/03/22 01:34:33;;;;;;;;;;;;;;;14.48;53.26;100698.75;5051918;28;20403;-78
2023/03/22 01:37:26;;;;;;;;;;;;;;;14.42;52.43;100700.13;5051272;28;19917;-78
2023/03/22 01:40:16;;;;;;;;;;;;;;;14.48;52.57;100700.69;5064577;28;19917;-78
2023/03/22 01:43:08;;;;;;;;;;;;;;;14.50;52.65;100692.94;5059576;28;19921;-78
2023/03/22 01:46:00;;;;;;;;;;;;;;;14.41;52.27;100700.47;5050214;28;19921;-78
2023/03/22 01:48:51;;;;;;;;;;;;;;;14.37;52.88;100703.09;5067758;28;19916;-78
2023/03/22 01:51:44;;;;;;;;;;;;;;;14.32;53.31;100697.81;5057599;28;19917;-77
2023/03/22 01:54:45;;;;;;;;;;;;;;;14.39;53.12;100692.59;5055288;28;20307;-77
2023/03/22 01:58:02;;;;;;;;;;;;;;;14.38;53.30;100699.19;5052076;28;20371;-78
2023/03/22 02:01:02;;;;;;;;;;;;;;;14.30;53.13;100700.06;5061310;28;19916;-78
2023/03/22 02:04:11;;;;;;;;;;;;;;;14.30;52.95;100697.34;5058508;28;19920;-78
2023/03/22 02:07:01;;;;;;;;;;;;;;;14.25;53.27;100692.09;5062662;28;20307;-78
2023/03/22 02:09:54;;;;;;;;;;;;;;;14.22;52.95;100695.50;5068285;28;19916;-78
2023/03/22 02:12:57;;;;;;;;;;;;;;;14.21;53.55;100693.91;5074253;28;19917;-78
2023/03/22 02:16:10;;;;;;;;;;;;;;;14.28;53.50;100694.13;5057783;28;19924;-78
2023/03/22 02:19:35;;;;;;;;;;;;;;;14.16;53.36;100691.41;5074731;28;19917;-80
2023/03/22 02:22:39;;;;;;;;;;;;;;;14.26;53.00;100684.69;5082365;28;19921;-78
2023/03/22 02:25:38;;;;;;;;;;;;;;;14.20;53.39;100686.03;5059380;28;20295;-78
2023/03/22 02:28:38;;;;;;;;;;;;;;;14.17;53.29;100678.53;5058923;28;20311;-78
2023/03/22 02:31:36;;;;;;;;;;;;;;;14.11;54.01;100697.91;5060984;28;19921;-78
2023/03/22 02:34:32;;;;;;;;;;;;;;;14.11;54.19;100686.16;5055330;28;19917;-78
2023/03/22 02:37:24;;;;;;;;;;;;;;;14.03;54.28;100687.03;5052374;28;19917;-77
2023/03/22 02:40:20;;;;;;;;;;;;;;;13.99;54.00;100692.38;5061101;28;19916;-78
2023/03/22 02:43:37;;;;;;;;;;;;;;;13.94;54.45;100684.41;5056766;28;19939;-78
2023/03/22 02:46:29;;;;;;;;;;;;;;;13.86;54.05;100677.09;5047084;28;19916;-78
2023/03/22 02:49:21;;;;;;;;;;;;;;;13.87;55.05;100683.34;5062659;28;19920;-78
2023/03/22 02:52:16;;;;;;;;;;;;;;;13.93;54.33;100687.47;5056939;28;19917;-79
2023/03/22 02:55:11;;;;;;;;;;;;;;;13.91;54.40;100692.50;5057620;28;19916;-79
2023/03/22 02:58:04;;;;;;;;;;;;;;;13.81;54.66;100693.72;5049810;28;19917;-79
2023/03/22 03:00:57;;;;;;;;;;;;;;;13.82;55.17;100684.38;5060880;28;19917;-78
2023/03/22 03:03:50;;;;;;;;;;;;;;;13.92;54.92;100685.88;5061061;28;19943;-77
2023/03/22 03:06:44;;;;;;;;;;;;;;;13.94;54.98;100683.59;5057858;28;19916;-76
2023/03/22 03:09:35;;;;;;;;;;;;;;;13.88;55.12;100685.75;5051437;28;19947;-78
2023/03/22 03:12:29;;;;;;;;;;;;;;;13.88;55.04;100687.69;5056798;28;19917;-78
2023/03/22 03:15:22;;;;;;;;;;;;;;;13.90;55.68;100686.22;5056435;28;19917;-79
2023/03/22 03:18:19;;;;;;;;;;;;;;;13.93;55.24;100696.47;5058869;28;19917;-79
2023/03/22 03:21:15;;;;;;;;;;;;;;;13.93;55.13;100695.66;5056438;28;19916;-79
2023/03/22 03:24:21;;;;;;;;;;;;;;;13.79;55.23;100695.19;5062608;28;20395;-78
2023/03/22 03:27:18;;;;;;;;;;;;;;;13.88;54.73;100696.69;5051723;28;19924;-78
2023/03/22 03:30:21;;;;;;;;;;;;;;;13.88;55.35;100696.69;5073625;28;19917;-78
2023/03/22 03:33:14;;;;;;;;;;;;;;;13.76;55.68;100698.59;5057887;28;20382;-78
2023/03/22 03:36:06;;;;;;;;;;;;;;;13.81;55.50;100696.47;5058941;28;19917;-78
2023/03/22 03:38:59;;;;;;;;;;;;;;;13.82;55.85;100703.50;5059073;28;19917;-77
2023/03/22 03:41:52;;;;;;;;;;;;;;;13.82;55.93;100694.50;5055840;28;19921;-79
2023/03/22 03:44:44;;;;;;;;;;;;;;;13.85;55.87;100699.31;5069929;28;19917;-78
2023/03/22 03:47:37;;;;;;;;;;;;;;;13.84;55.47;100700.44;5060662;28;19921;-79
2023/03/22 03:50:28;;;;;;;;;;;;;;;13.82;55.55;100699.97;5072414;28;19917;-79
2023/03/22 03:53:20;;;;;;;;;;;;;;;13.81;55.29;100696.47;5054709;28;19917;-79
2023/03/22 03:56:12;;;;;;;;;;;;;;;13.73;55.68;100693.78;5055280;28;19917;-79
2023/03/22 03:59:07;;;;;;;;;;;;;;;13.78;55.28;100696.31;5051939;28;19925;-78
2023/03/22 04:01:59;;;;;;;;;;;;;;;13.73;55.37;100693.78;5048224;28;19921;-78
2023/03/22 04:04:52;;;;;;;;;;;;;;;13.64;55.08;100697.41;5055756;28;20383;-78
2023/03/22 04:07:44;;;;;;;;;;;;;;;13.68;54.91;100695.59;5053099;28;19916;-78
2023/03/22 04:10:36;;;;;;;;;;;;;;;13.64;55.25;100696.63;5056559;28;20391;-79
2023/03/22 04:13:28;;;;;;;;;;;;;;;13.66;55.65;100700.59;5068940;28;20299;-78
2023/03/22 04:16:18;;;;;;;;;;;;;;;13.64;56.17;100702.88;5060987;28;19917;-79
2023/03/22 04:19:07;;;;;;;;;;;;;;;13.75;55.44;100699.72;5056157;28;20388;-78
2023/03/22 04:21:59;;;;;;;;;;;;;;;13.70;55.51;100706.19;5033947;28;20347;-77
2023/03/22 04:24:53;;;;;;;;;;;;;;;13.61;55.90;100700.78;5050054;28;19917;-78
2023/03/22 04:27:47;;;;;;;;;;;;;;;13.53;56.13;100707.16;5052586;28;19917;-77
2023/03/22 04:30:41;;;;;;;;;;;;;;;13.43;56.82;100709.50;5056412;28;19916;-77
2023/03/22 04:34:00;;;;;;;;;;;;;;;13.13;58.09;100706.03;5044115;28;19920;-77
2023/03/22 04:36:58;;;;;;;;;;;;;;;13.17;57.85;100710.50;5061591;28;20384;-78
2023/03/22 04:39:54;;;;;;;;;;;;;;;13.12;57.99;100699.78;5063234;28;20379;-78
2023/03/22 04:43:13;;;;;;;;;;;;;;;13.19;57.39;100704.72;5058288;28;19921;-78
2023/03/22 04:46:20;;;;;;;;;;;;;;;13.17;57.12;100710.50;5067956;28;19917;-78
2023/03/22 04:49:15;;;;;;;;;;;;;;;13.19;57.54;100702.78;5063666;28;19916;-78
2023/03/22 04:52:07;;;;;;;;;;;;;;;13.19;57.76;100702.78;5050242;28;19916;-78
2023/03/22 04:54:59;;;;;;;;;;;;;;;13.36;57.37;100701.06;5071212;28;20091;-77
2023/03/22 04:57:51;;;;;;;;;;;;;;;13.26;57.28;100699.50;5060283;28;19916;-78
2023/03/22 05:00:41;;;;;;;;;;;;;;;13.27;57.08;100706.56;5046601;28;19924;-78
2023/03/22 05:03:33;;;;;;;;;;;;;;;13.24;57.39;100709.97;5064785;28;19920;-78
2023/03/22 05:06:25;;;;;;;;;;;;;;;13.23;57.13;100708.38;5054299;28;19917;-78
2023/03/22 05:09:20;;;;;;;;;;;;;;;13.31;57.07;100718.41;5054798;28;19924;-77
2023/03/22 05:12:13;;;;;;;;;;;;;;;13.24;57.02;100721.69;5063917;28;19916;-78
2023/03/22 05:15:09;;;;;;;;;;;;;;;13.28;57.27;100732.75;5066224;28;19920;-79
2023/03/22 05:18:01;;;;;;;;;;;;;;;13.25;57.24;100728.75;5058564;28;19917;-77
2023/03/22 05:20:54;;;;;;;;;;;;;;;13.10;57.34;100723.06;5058779;28;19916;-78
2023/03/22 05:23:47;;;;;;;;;;;;;;;13.12;57.80;100729.81;5067435;28;20395;-78
2023/03/22 05:26:41;;;;;;;;;;;;;;;13.08;58.19;100723.38;5057280;28;19916;-78
2023/03/22 05:29:35;;;;;;;;;;;;;;;13.09;58.30;100735.09;5056437;28;19916;-79
2023/03/22 05:32:31;;;;;;;;;;;;;;;13.11;58.18;100730.94;5052161;28;20375;-79
2023/03/22 05:35:23;;;;;;;;;;;;;;;13.03;58.38;100736.44;5059447;28;19917;-78
2023/03/22 05:38:16;;;;;;;;;;;;;;;13.05;58.09;100731.44;5079983;28;19917;-78
2023/03/22 05:41:10;;;;;;;;;;;;;;;13.09;57.92;100741.38;5049819;28;19921;-78
2023/03/22 05:44:02;;;;;;;;;;;;;;;13.06;58.03;100741.22;5048079;28;19925;-78
2023/03/22 05:46:54;;;;;;;;;;;;;;;13.00;57.84;100737.91;5054197;28;19917;-77
2023/03/22 05:49:58;;;;;;;;;;;;;;;12.98;57.83;100739.34;5048321;28;19920;-78
2023/03/22 05:52:50;;;;;;;;;;;;;;;12.93;58.18;100737.59;5068091;28;19924;-78
2023/03/22 05:55:56;;;;;;;;;;;;;;;12.98;57.96;100737.41;5067945;28;19918;-78
2023/03/22 05:58:46;;;;;;;;;;;;;;;13.00;57.65;100740.63;5068423;28;19916;-78
2023/03/22 06:01:38;;;;;;;;;;;;;;;12.96;57.58;100741.59;5050523;28;19917;-79
2023/03/22 06:04:40;;;;;;;;;;;;;;;12.98;57.68;100744.81;5049116;28;20185;-78
2023/03/22 06:07:34;;;;;;;;;;;;;;;12.88;57.87;100743.25;5068698;28;19917;-78
2023/03/22 06:10:35;;;;;;;;;;;;;;;12.91;57.29;100745.31;5040237;28;19917;-76
2023/03/22 06:13:26;;;;;;;;;;;;;;;12.82;58.24;100752.75;5074768;28;19917;-78
2023/03/22 06:16:18;;;;;;;;;;;;;;;12.82;58.35;100753.56;5072053;28;20380;-76
2023/03/22 06:19:10;;;;;;;;;;;;;;;12.79;58.71;100754.22;5051939;28;19921;-76
2023/03/22 06:22:02;;;;;;;;;;;;;;;12.84;58.81;100750.50;5046084;28;19917;-78
2023/03/22 06:24:54;;;;;;;;;;;;;;;12.88;58.66;100750.66;5055818;28;19917;-78
2023/03/22 06:27:53;;;;;;;;;;;;;;;12.94;58.71;100754.78;5064742;28;19930;-78
2023/03/22 06:30:45;;;;;;;;;;;;;;;12.93;58.79;100753.19;5067873;28;19917;-78
2023/03/22 06:33:44;;;;;;;;;;;;;;;13.13;58.52;100747.00;5057704;28;19917;-78
2023/03/22 06:36:47;;;;;;;;;;;;;;;13.14;58.22;100751.31;5065449;28;19917;-77
2023/03/22 06:39:44;;;;;;;;;;;;;;;13.27;58.09;100750.25;5083183;28;19916;-79
2023/03/22 06:42:36;;;;;;;;;;;;;;;13.31;58.02;100753.91;5061910;28;19928;-78
2023/03/22 06:45:32;;;;;;;;;;;;;;;13.33;58.40;100757.13;5064671;28;19920;-78
2023/03/22 06:48:24;;;;;;;;;;;;;;;13.45;59.22;100759.94;5085253;28;19916;-79
2023/03/22 06:51:22;;;;;;;;;;;;;;;13.49;59.16;100766.34;5077290;28;19916;-79
2023/03/22 06:54:14;;;;;;;;;;;;;;;13.62;59.12;100759.78;5090825;28;19916;-78
2023/03/22 06:57:06;;;;;;;;;;;;;;;13.67;59.74;100759.59;5066942;28;19916;-78
2023/03/22 06:59:59;;;;;;;;;;;;;;;13.80;59.34;100765.13;5072277;28;20375;-79
2023/03/22 07:02:51;;;;;;;;;;;;;;;13.87;59.44;100757.16;5064166;28;19925;-80
2023/03/22 07:05:50;;;;;;;;;;;;;;;13.98;59.22;100763.81;5088212;28;19916;-76
2023/03/22 07:08:42;;;;;;;;;;;;;;;14.05;58.80;100764.88;5068960;28;19917;-78
2023/03/22 07:11:34;;;;;;;;;;;;;;;14.07;58.57;100759.84;5065382;28;19916;-76
2023/03/22 07:14:26;;;;;;;;;;;;;;;14.14;58.25;100759.31;5073587;28;20399;-80
2023/03/22 07:17:24;;;;;;;;;;;;;;;14.15;58.38;100769.13;5080603;28;19917;-80
2023/03/22 07:20:16;;;;;;;;;;;;;;;14.21;58.44;100770.50;5063699;28;19917;-77
2023/03/22 07:23:08;;;;;;;;;;;;;;;14.32;58.33;100770.88;5060246;28;19921;-77
2023/03/22 07:26:05;;;;;;;;;;;;;;;14.41;58.26;100774.34;5058259;28;19916;-79
2023/03/22 07:28:58;;;;;;;;;;;;;;;14.44;57.63;100782.66;5062677;28;19916;-79
2023/03/22 07:31:51;;;;;;;;;;;;;;;14.54;57.04;100778.69;5058019;28;19917;-77
2023/03/22 07:35:03;;;;;;;;;;;;;;;14.65;56.75;100779.03;5061426;28;19916;-77
2023/03/22 07:37:56;;;;;;;;;;;;;;;14.76;56.49;100786.47;5066456;28;19916;-76
2023/03/22 07:40:52;;;;;;;;;;;;;;;14.89;55.59;100779.03;5078985;28;19920;-77
2023/03/22 07:43:45;;;;;;;;;;;;;;;14.90;55.44;100786.13;5067514;28;19921;-78
2023/03/22 07:46:38;;;;;;;;;;;;;;;14.91;54.96;100793.19;5069280;28;19916;-78
2023/03/22 07:49:39;;;;;;;;;;;;;;;14.93;54.38;100786.22;5068970;28;20387;-79
2023/03/22 07:52:36;;;;;;;;;;;;;;;15.03;54.64;100795.16;5066227;28;19917;-80
2023/03/22 07:55:30;;;;;;;;;;;;;;;15.07;54.17;100793.31;5075107;28;19916;-78
2023/03/22 07:58:22;;;;;;;;;;;;;;;15.14;54.18;100799.78;5072589;28;19931;-79
2023/03/22 08:01:11;;;;;;;;;;;;;;;15.31;53.86;100801.50;5056257;28;19916;-79
2023/03/22 08:04:21;;;;;;;;;;;;;;;15.47;52.91;100796.91;5063379;28;19921;-79
2023/03/22 08:07:23;;;;;;;;;;;;;;;15.47;53.00;100796.91;5070520;28;19916;-80
2023/03/22 08:10:15;;;;;;;;;;;;;;;15.57;52.73;100803.88;5075046;28;19917;-78
2023/03/22 08:13:07;;;;;;;;;;;;;;;15.60;52.88;100797.69;5092907;28;19916;-80
2023/03/22 08:16:00;;;;;;;;;;;;;;;15.80;52.15;100807.69;5061108;28;19917;-80
2023/03/22 08:18:50;;;;;;;;;;;;;;;15.85;51.77;100804.69;5056228;28;19920;-81
2023/03/22 08:21:43;;;;;;;;;;;;;;;15.90;52.23;100811.91;5057961;28;19916;-78
2023/03/22 08:24:46;;;;;;;;;;;;;;;15.93;51.94;100809.25;5058318;28;19921;-77
2023/03/22 08:27:46;;;;;;;;;;;;;;;15.98;51.49;100813.69;5052983;28;20377;-77
2023/03/22 08:30:38;;;;;;;;;;;;;;;16.04;51.59;100810.38;5069630;28;19916;-78
2023/03/22 08:33:28;;;;;;;;;;;;;;;16.09;51.30;100804.63;5059135;28;19917;-83
2023/03/22 08:36:21;;;;;;;;;;;;;;;16.25;51.31;100808.19;5054936;28;19917;-77
2023/03/22 08:39:24;;;;;;;;;;;;;;;16.32;51.01;100804.84;5056325;28;19920;-78
2023/03/22 08:42:39;;;;;;;;;;;;;;;16.41;51.06;100807.41;5065136;28;19929;-84
2023/03/22 08:45:30;;;;;;;;;;;;;;;16.47;51.13;100804.06;5058895;28;19916;-79
2023/03/22 08:48:34;;;;;;;;;;;;;;;16.56;51.26;100806.63;5071144;28;19917;-78
2023/03/22 08:51:50;;;;;;;;;;;;;;;16.53;51.29;100804.59;5060813;28;19921;-77
2023/03/22 08:55:01;;;;;;;;;;;;;;;16.71;51.16;100803.13;5054003;28;20304;-78
2023/03/22 08:58:20;;;;;;;;;;;;;;;16.78;51.64;100803.31;5053469;28;19917;-77
2023/03/22 09:01:19;;;;;;;;;;;;;;;16.88;51.17;100808.28;5054761;28;19917;-77
2023/03/22 09:04:29;;;;;;;;;;;;;;;16.95;51.56;100808.47;5056201;28;19925;-79
2023/03/22 09:07:23;;;;;;;;;;;;;;;16.98;51.11;100805.00;5058397;28;19917;-79
2023/03/22 09:10:24;;;;;;;;;;;;;;;17.05;50.83;100802.41;5065478;28;19917;-79
2023/03/22 09:13:16;;;;;;;;;;;;;;;17.14;51.01;100801.41;5057103;28;19917;-77
2023/03/22 09:16:09;;;;;;;;;;;;;;;17.19;50.15;100812.13;5035226;28;19921;-79
2023/03/22 09:19:01;;;;;;;;;;;;;;;17.21;49.93;100807.91;5050067;28;19921;-78
2023/03/22 09:21:53;;;;;;;;;;;;;;;17.24;49.22;100807.16;5055547;28;19916;-79
2023/03/22 09:24:54;;;;;;;;;;;;;;;17.31;49.63;100812.03;5053321;28;19920;-79
2023/03/22 09:27:44;;;;;;;;;;;;;;;17.42;48.75;100818.59;5068417;28;19916;-78
2023/03/22 09:30:36;;;;;;;;;;;;;;;17.53;47.93;100814.91;5058493;28;19917;-78
2023/03/22 09:33:27;;;;;;;;;;;;;;;17.67;47.84;100814.47;5060166;28;19916;-78
2023/03/22 09:36:19;;;;;;;;;;;;;;;17.94;46.90;100810.69;5048444;28;19916;-79
2023/03/22 09:39:09;;;;;;;;;;;;;;;18.02;46.28;100819.91;5053767;28;19925;-80
2023/03/22 09:42:00;;;;;;;;;;;;;;;18.15;45.72;100820.53;5050082;28;20478;-79
2023/03/22 09:44:53;;;;;;;;;;;;;;;18.14;46.00;100818.91;5054532;28;21777;-80
2023/03/22 09:47:47;;;;;;;;;;;;;;;18.17;46.38;100818.22;5059353;28;19921;-80
2023/03/22 09:50:40;;;;;;;;;;;;;;;18.19;46.05;100810.38;5058075;28;19921;-80
2023/03/22 09:53:33;;;;;;;;;;;;;;;18.08;46.68;100809.38;5071827;28;20380;-80
2023/03/22 09:56:25;;;;;;;;;;;;;;;18.25;45.80;100800.66;5064467;28;19917;-80
2023/03/22 09:59:26;;;;;;;;;;;;;;;18.33;45.95;100796.91;5045410;28;19920;-79
2023/03/22 10:02:44;;;;;;;;;;;;;;;18.35;45.73;100797.31;5063319;28;19916;-79
2023/03/22 10:05:46;;;;;;;;;;;;;;;18.31;45.92;100800.00;5035919;28;19920;-79
2023/03/22 10:08:45;;;;;;;;;;;;;;;18.36;45.76;100796.94;5058245;28;19917;-80
2023/03/22 10:11:53;;;;;;;;;;;;;;;18.42;45.24;100796.66;5068855;28;19917;-81
2023/03/22 10:14:48;;;;;;;;;;;;;;;18.45;45.21;100795.91;5056305;28;19916;-80
2023/03/22 10:17:40;;;;;;;;;;;;;;;18.51;45.58;100794.44;5056273;28;19917;-81
2023/03/22 10:20:35;;;;;;;;;;;;;;;18.48;45.88;100790.47;5057903;28;19917;-80
2023/03/22 10:23:31;;;;;;;;;;;;;;;18.51;46.78;100788.94;5054432;28;19920;-81
2023/03/22 10:26:28;;;;;;;;;;;;;;;18.71;46.42;100793.25;5057364;28;19916;-80
2023/03/22 10:29:32;;;;;;;;;;;;;;;18.86;46.08;100789.56;5063190;28;19917;-82
2023/03/22 10:32:36;;;;;;;;;;;;;;;18.87;45.38;100793.13;5065623;28;19917;-83
2023/03/22 10:35:28;;;;;;;;;;;;;;;18.97;44.80;100789.75;5056209;28;20299;-82
2023/03/22 10:38:25;;;;;;;;;;;;;;;18.89;44.72;100788.84;5063560;28;20293;-83
2023/03/22 10:41:18;;;;;;;;;;;;;;;18.99;43.58;100779.94;5060048;28;19917;-81
2023/03/22 10:44:16;;;;;;;;;;;;;;;18.94;43.95;100776.72;5065598;28;20311;-80
2023/03/22 10:47:08;;;;;;;;;;;;;;;19.10;45.34;100771.81;5055771;28;19917;-81
2023/03/22 10:50:01;;;;;;;;;;;;;;;19.35;44.80;100772.97;5075532;28;19916;-79
2023/03/22 10:52:56;;;;;;;;;;;;;;;19.20;44.96;100765.66;5079772;28;19917;-79
2023/03/22 10:55:48;;;;;;;;;;;;;;;19.12;44.72;100770.28;5059526;28;19917;-80
2023/03/22 10:58:40;;;;;;;;;;;;;;;19.43;43.55;100758.13;5050115;28;19916;-79
2023/03/22 11:01:30;;;;;;;;;;;;;;;19.58;43.69;100759.13;5061389;28;19917;-80
2023/03/22 11:04:20;;;;;;;;;;;;;;;19.69;42.79;100765.59;5059810;28;19920;-79
2023/03/22 11:07:15;;;;;;;;;;;;;;;19.71;42.59;100752.19;5057300;28;19917;-80
2023/03/22 11:10:20;;;;;;;;;;;;;;;19.79;42.53;100756.66;5066525;28;20391;-79
2023/03/22 11:13:14;;;;;;;;;;;;;;;19.94;42.05;100755.63;5065470;28;19917;-79
2023/03/22 11:16:06;;;;;;;;;;;;;;;19.96;40.96;100750.50;5067323;28;19916;-79
2023/03/22 11:18:58;;;;;;;;;;;;;;;20.04;40.62;100754.16;5067281;28;19917;-79
2023/03/22 11:21:50;;;;;;;;;;;;;;;20.11;41.94;100759.75;5059501;28;19921;-80
2023/03/22 11:24:42;;;;;;;;;;;;;;;20.30;41.30;100754.03;5068306;28;19920;-78
2023/03/22 11:27:35;;;;;;;;;;;;;;;20.34;41.04;100754.88;5064713;28;19921;-79
2023/03/22 11:30:28;;;;;;;;;;;;;;;20.41;41.32;100752.22;5060906;28;19924;-79
2023/03/22 11:33:17;;;;;;;;;;;;;;;20.55;40.64;100747.97;5053737;28;19916;-79
2023/03/22 11:36:17;;;;;;;;;;;;;;;20.72;39.99;100747.34;5048340;28;19917;-78
2023/03/22 11:39:08;;;;;;;;;;;;;;;20.73;40.13;100743.38;5052646;28;19916;-79
2023/03/22 11:42:02;;;;;;;;;;;;;;;20.72;39.79;100745.38;5046254;28;19917;-79
2023/03/22 11:44:53;;;;;;;;;;;;;;;20.79;39.83;100734.34;5054522;28;19925;-78
2023/03/22 11:47:45;;;;;;;;;;;;;;;20.98;39.39;100732.53;5048592;28;20327;-78
2023/03/22 11:50:35;;;;;;;;;;;;;;;21.12;39.12;100730.63;5056528;28;19917;-78
2023/03/22 11:53:28;;;;;;;;;;;;;;;21.19;38.55;100729.88;5059460;28;19917;-77
2023/03/22 11:56:22;;;;;;;;;;;;;;;21.21;38.83;100722.00;5066926;28;19917;-76
2023/03/22 11:59:22;;;;;;;;;;;;;;;26.53;30.79;100731.19;5049923;28;20376;-76
2023/03/22 12:02:20;;;;;;;;;;;;;;;28.97;26.86;100736.41;5059480;28;19917;-78
2023/03/22 12:05:16;;;;;;;;;;;;;;;25.40;30.23;100717.59;5056953;28;19925;-77
2023/03/22 12:08:10;;;;;;;;;;;;;;;24.40;34.83;100727.31;5058996;28;20312;-77
2023/03/22 12:11:06;;;;;;;;;;;;;;;23.66;35.35;100721.00;5049904;28;20384;-76
2023/03/22 12:14:08;;;;;;;;;;;;;;;23.58;34.68;100715.88;5047396;28;19917;-77
2023/03/22 12:17:01;;;;;;;;;;;;;;;23.60;32.90;100710.72;5049059;28;20276;-77
2023/03/22 12:19:59;;;;;;;;;;;;;;;23.43;35.68;100715.91;5054762;28;19924;-77
2023/03/22 12:22:51;;;;;;;;;;;;;;;23.35;34.49;100708.03;5059521;28;19921;-76
2023/03/22 12:25:44;;;;;;;;;;;;;;;23.33;35.66;100702.88;5056631;28;19920;-75
2023/03/22 12:28:37;;;;;;;;;;;;;;;22.84;37.74;100706.56;5053564;28;19921;-77
2023/03/22 12:31:37;;;;;;;;;;;;;;;23.84;34.63;100699.47;5049225;28;19917;-75
2023/03/22 12:34:33;;;;;;;;;;;;;;;23.39;33.73;100692.13;5056110;28;19916;-76
2023/03/22 12:37:27;;;;;;;;;;;;;;;23.28;35.67;100685.84;5058513;28;19917;-75
2023/03/22 12:40:20;;;;;;;;;;;;;;;23.07;34.22;100681.13;5055916;28;19917;-76
2023/03/22 12:43:16;;;;;;;;;;;;;;;22.83;34.02;100684.78;5055035;28;19920;-77
2023/03/22 12:46:12;;;;;;;;;;;;;;;22.62;34.44;100680.00;5058137;28;19917;-76
2023/03/22 12:49:07;;;;;;;;;;;;;;;22.42;36.65;100670.53;5054629;28;19920;-77
2023/03/22 12:52:05;;;;;;;;;;;;;;;22.30;37.37;100668.19;5059445;28;19921;-76
2023/03/22 12:54:58;;;;;;;;;;;;;;;22.52;37.33;100664.19;5056603;28;19916;-77
2023/03/22 12:57:51;;;;;;;;;;;;;;;22.09;38.52;100664.22;5071157;28;19924;-75
2023/03/22 13:00:48;;;;;;;;;;;;;;;22.33;37.28;100659.06;5062133;28;19965;-75
2023/03/22 13:03:40;;;;;;;;;;;;;;;22.78;34.13;100658.25;5067018;28;19921;-79
2023/03/22 13:06:35;;;;;;;;;;;;;;;22.48;37.28;100655.09;5055454;28;19917;-79
2023/03/22 13:09:31;;;;;;;;;;;;;;;22.86;35.70;100656.22;5040393;28;20376;-78
2023/03/22 13:12:23;;;;;;;;;;;;;;;22.56;35.82;100646.34;5045644;28;19916;-78
2023/03/22 13:15:34;;;;;;;;;;;;;;;22.66;36.69;100647.53;5063723;28;20007;-79
2023/03/22 13:18:29;;;;;;;;;;;;;;;22.48;36.81;100644.78;5056980;28;19917;-78
2023/03/22 13:21:25;;;;;;;;;;;;;;;23.53;35.05;100642.13;5077106;28;19917;-78
2023/03/22 13:24:18;;;;;;;;;;;;;;;25.92;28.54;100637.34;5064950;28;19921;-78
2023/03/22 13:27:10;;;;;;;;;;;;;;;24.19;31.26;100644.88;5055391;28;19917;-80
2023/03/22 13:30:03;;;;;;;;;;;;;;;24.06;31.31;100635.44;5063541;28;20529;-78
2023/03/22 13:33:02;;;;;;;;;;;;;;;23.84;31.72;100623.69;5054145;28;19917;-78
2023/03/22 13:35:56;;;;;;;;;;;;;;;23.62;31.83;100627.81;5063169;28;20446;-79
2023/03/22 13:38:54;;;;;;;;;;;;;;;23.57;31.99;100619.91;5061537;28;19916;-78
2023/03/22 13:41:48;;;;;;;;;;;;;;;23.62;32.08;100617.47;5080060;28;19916;-79
2023/03/22 13:44:41;;;;;;;;;;;;;;;23.55;31.62;100622.31;5079524;28;20387;-78
2023/03/22 13:47:44;;;;;;;;;;;;;;;23.52;31.77;100623.13;5075424;28;20314;-76
2023/03/22 13:50:37;;;;;;;;;;;;;;;23.47;31.25;100618.75;5062581;28;19916;-78
2023/03/22 13:53:36;;;;;;;;;;;;;;;23.43;31.74;100621.53;5069343;28;19916;-78
2023/03/22 13:56:37;;;;;;;;;;;;;;;23.33;31.59;100616.81;5061644;28;20280;-78
2023/03/22 13:59:32;;;;;;;;;;;;;;;23.22;31.66;100612.50;5056330;28;19917;-78
2023/03/22 14:02:27;;;;;;;;;;;;;;;23.22;31.69;100609.75;5061068;28;19939;-78
2023/03/22 14:05:21;;;;;;;;;;;;;;;23.26;31.44;100605.00;5058629;28;20315;-78
2023/03/22 14:08:19;;;;;;;;;;;;;;;23.27;31.61;100601.00;5053452;28;19917;-77
2023/03/22 14:11:19;;;;;;;;;;;;;;;23.17;31.69;100596.28;5059782;28;19917;-78
2023/03/22 14:14:19;;;;;;;;;;;;;;;23.10;31.89;100585.25;5056400;28;19917;-78
2023/03/22 14:17:14;;;;;;;;;;;;;;;23.22;31.48;100590.31;5037476;28;19917;-78
2023/03/22 14:20:05;;;;;;;;;;;;;;;23.18;30.77;100575.69;5038276;28;19917;-77
2023/03/22 14:22:55;;;;;;;;;;;;;;;23.10;31.42;100572.16;5048901;28;19916;-78
2023/03/22 14:25:46;;;;;;;;;;;;;;;23.20;31.29;100568.53;5059014;28;19921;-78
2023/03/22 14:28:38;;;;;;;;;;;;;;;23.18;31.50;100570.13;5060051;28;20516;-78
2023/03/22 14:31:30;;;;;;;;;;;;;;;23.18;31.65;100564.59;5052340;28;19916;-78
2023/03/22 14:34:23;;;;;;;;;;;;;;;23.23;31.16;100556.63;5057868;28;19917;-78
2023/03/22 14:37:16;;;;;;;;;;;;;;;23.23;31.50;100555.84;5058389;28;19917;-77
2023/03/22 14:40:13;;;;;;;;;;;;;;;23.21;31.11;100559.00;5055391;28;19916;-78
2023/03/22 14:43:28;;;;;;;;;;;;;;;23.22;30.56;100559.78;5057746;28;20300;-78
2023/03/22 14:46:19;;;;;;;;;;;;;;;23.01;31.13;100561.47;5062958;28;19920;-79
2023/03/22 14:49:16;;;;;;;;;;;;;;;22.94;31.25;100547.66;5051397;28;19917;-78
2023/03/22 14:52:08;;;;;;;;;;;;;;;22.98;31.35;100544.88;5059465;28;19917;-76
2023/03/22 14:55:00;;;;;;;;;;;;;;;22.97;31.36;100548.81;5058092;28;19917;-77
2023/03/22 14:58:02;;;;;;;;;;;;;;;23.02;31.61;100543.66;5053696;28;19921;-77